Time;durP1;ratioP1;P1;durP2;ratioP2;P2;SDS_P1;SDS_P2;PMS_P1;PMS_P2;Temp;Humidity;BMP_temperature;BMP_pressure;BME280_temperature;BME280_humidity;BME280_pressure;Samples;Min_cycle;Max_cycle;Signal;HPM_P1;HPM_P2
2023/06/30 00:00:19;;;;;;;6.90;4.90;;;;;;;18.89;100.00;99813.71;179847;1264;59022;-62
2023/06/30 00:04:41;;;;;;;5.90;4.70;;;;;;;18.89;100.00;99812.76;179815;1263;44126;-61
2023/06/30 00:08:43;;;;;;;8.40;5.70;;;;;;;18.93;100.00;99808.73;179769;1263;44211;-62
2023/06/30 00:12:45;;;;;;;8.70;4.80;;;;;;;18.99;100.00;99808.19;179815;1264;46001;-61
2023/06/30 00:16:49;;;;;;;5.90;4.80;;;;;;;18.94;100.00;99809.73;179813;1264;44846;-61
2023/06/30 00:21:00;;;;;;;10.00;5.30;;;;;;;18.85;100.00;99804.65;179809;1264;59195;-61
2023/06/30 00:25:02;;;;;;;8.90;5.20;;;;;;;18.87;100.00;99802.28;179662;1264;166338;-61
2023/06/30 00:29:05;;;;;;;7.10;4.60;;;;;;;18.95;100.00;99800.00;179765;1264;46069;-62
2023/06/30 00:33:06;;;;;;;6.40;5.60;;;;;;;19.07;100.00;99800.75;179798;1264;45990;-62
2023/06/30 00:37:09;;;;;;;13.00;5.90;;;;;;;19.20;100.00;99794.80;179629;1264;43836;-62
2023/06/30 00:41:13;;;;;;;8.80;5.10;;;;;;;19.24;100.00;99786.89;179743;1265;58893;-62
2023/06/30 00:45:15;;;;;;;5.50;4.70;;;;;;;19.21;100.00;99783.45;179739;1265;43562;-62
2023/06/30 00:49:18;;;;;;;6.40;5.30;;;;;;;19.24;100.00;99778.13;179674;1264;44982;-62
2023/06/30 00:53:20;;;;;;;6.10;4.20;;;;;;;19.25;100.00;99774.02;180019;1264;45960;-62
2023/06/30 00:57:22;;;;;;;8.20;4.60;;;;;;;19.28;100.00;99768.75;180179;1264;44559;-62
2023/06/30 01:06:53;;;;;;;12.40;5.40;;;;;;;19.35;100.00;99755.48;179838;1264;44091;-62
2023/06/30 01:10:56;;;;;;;16.30;6.30;;;;;;;19.40;100.00;99754.92;179830;1264;43634;-62
2023/06/30 01:15:02;;;;;;;6.70;3.70;;;;;;;19.53;100.00;99743.53;179661;1264;46041;-60
2023/06/30 01:19:18;;;;;;;6.40;3.80;;;;;;;19.52;100.00;99742.15;179570;1264;43790;-60
2023/06/30 01:23:35;;;;;;;6.00;4.60;;;;;;;19.47;100.00;99737.77;179643;1263;57932;-60
2023/06/30 01:27:50;;;;;;;6.60;5.30;;;;;;;19.55;100.00;99733.61;179800;1264;43829;-62
2023/06/30 01:31:53;;;;;;;8.60;5.50;;;;;;;19.68;100.00;99727.02;179858;1264;44538;-62
2023/06/30 01:35:55;;;;;;;10.40;5.20;;;;;;;19.77;100.00;99729.59;179750;1264;46026;-62
2023/06/30 01:40:04;;;;;;;6.20;5.10;;;;;;;19.75;100.00;99732.28;179740;1264;45972;-63
2023/06/30 01:44:06;;;;;;;9.80;5.10;;;;;;;19.63;100.00;99729.14;179640;1267;58011;-62
2023/06/30 01:48:09;;;;;;;6.40;4.40;;;;;;;19.68;100.00;99727.52;179828;1264;43783;-62
2023/06/30 01:53:01;;;;;;;6.40;4.10;;;;;;;19.67;100.00;99723.90;179829;1264;46102;-62
2023/06/30 01:57:04;;;;;;;5.60;3.70;;;;;;;19.54;100.00;99716.43;179734;1264;45901;-62
2023/06/30 02:01:06;;;;;;;7.00;4.70;;;;;;;19.50;100.00;99715.52;179805;1264;44950;-62
2023/06/30 02:05:14;;;;;;;7.30;4.90;;;;;;;19.54;100.00;99714.98;179726;1263;57997;-62
2023/06/30 02:09:16;;;;;;;7.20;3.80;;;;;;;19.60;100.00;99714.93;179877;1264;43764;-62
2023/06/30 02:13:25;;;;;;;5.90;4.40;;;;;;;19.65;100.00;99716.83;180143;1264;44135;-62
2023/06/30 02:17:32;;;;;;;8.90;5.00;;;;;;;19.61;100.00;99719.09;180122;1264;43780;-60
2023/06/30 02:21:34;;;;;;;15.70;5.90;;;;;;;19.51;100.00;99719.16;179812;1263;45188;-60
2023/06/30 02:25:36;;;;;;;10.00;5.40;;;;;;;19.47;100.00;99721.21;179809;1264;60097;-60
2023/06/30 02:29:40;;;;;;;18.30;6.60;;;;;;;19.56;100.00;99717.78;179810;1264;45985;-60
2023/06/30 02:33:42;;;;;;;21.40;6.40;;;;;;;19.66;100.00;99711.45;179745;1264;43704;-60
2023/06/30 02:37:45;;;;;;;12.50;6.80;;;;;;;19.78;100.00;99702.36;179637;1264;45999;-60
2023/06/30 02:41:49;;;;;;;7.10;5.00;;;;;;;19.85;100.00;99697.88;179807;1263;45908;-60
2023/06/30 02:45:56;;;;;;;13.00;4.00;;;;;;;19.77;100.00;99700.86;179806;1263;58431;-62
2023/06/30 02:49:58;;;;;;;6.20;4.40;;;;;;;19.69;100.00;99701.73;179813;1264;45391;-62
2023/06/30 02:54:00;;;;;;;15.80;5.40;;;;;;;19.70;100.00;99694.06;179906;1264;45032;-62
2023/06/30 02:58:02;;;;;;;20.30;5.70;;;;;;;19.68;100.00;99687.05;179646;1264;45040;-61
2023/06/30 03:02:06;;;;;;;14.00;5.20;;;;;;;19.76;100.00;99685.58;179819;1264;44628;-62
2023/06/30 03:06:09;;;;;;;11.90;7.40;;;;;;;19.76;100.00;99688.83;179852;1264;58164;-62
2023/06/30 03:10:12;;;;;;;9.20;5.50;;;;;;;19.63;100.00;99686.27;179960;1264;43659;-62
2023/06/30 03:14:14;;;;;;;12.30;5.00;;;;;;;19.62;100.00;99679.74;179855;1264;44818;-62
2023/06/30 03:18:16;;;;;;;8.90;5.10;;;;;;;19.64;100.00;99680.09;179787;1264;43654;-61
2023/06/30 03:22:21;;;;;;;10.80;4.40;;;;;;;19.66;100.00;99682.27;179904;1264;43749;-60
2023/06/30 03:26:24;;;;;;;;;;;;;;;19.71;100.00;99683.82;179978;1264;58610;-60
2023/06/30 03:30:26;;;;;;;14.60;7.00;;;;;;;19.73;100.00;99676.73;179817;1264;45726;-60
2023/06/30 03:34:28;;;;;;;13.40;6.10;;;;;;;19.73;100.00;99672.77;179949;1264;44004;-60
2023/06/30 03:38:30;;;;;;;9.10;7.40;;;;;;;19.71;100.00;99670.85;179904;1264;43634;-60
2023/06/30 03:42:32;;;;;;;11.80;6.20;;;;;;;19.71;100.00;99671.05;179835;1264;44534;-60
2023/06/30 03:46:36;;;;;;;6.90;5.60;;;;;;;19.73;100.00;99676.23;179902;1264;58553;-60
2023/06/30 03:50:43;;;;;;;9.90;7.20;;;;;;;19.77;100.00;99672.47;179899;1264;43797;-61
2023/06/30 03:54:45;;;;;;;9.50;7.00;;;;;;;19.78;100.00;99669.81;179926;1264;45982;-60
2023/06/30 03:58:47;;;;;;;11.50;7.40;;;;;;;19.75;100.00;99666.90;179692;1264;46068;-60
2023/06/30 04:02:49;;;;;;;10.10;7.60;;;;;;;19.77;100.00;99663.09;179789;1264;46008;-60
2023/06/30 04:07:18;;;;;;;13.20;6.20;;;;;;;19.82;100.00;99660.77;179751;1264;58540;-59
2023/06/30 04:11:31;;;;;;;10.70;6.90;;;;;;;19.90;100.00;99660.86;179798;1264;45894;-59
2023/06/30 04:15:34;;;;;;;14.40;8.00;;;;;;;19.97;100.00;99665.35;179800;1264;44209;-60
2023/06/30 04:19:36;;;;;;;21.70;7.20;;;;;;;20.04;100.00;99673.42;180012;1265;43584;-59
2023/06/30 04:24:03;;;;;;;14.40;7.00;;;;;;;20.14;100.00;99675.36;179959;1264;43534;-59
2023/06/30 04:28:05;;;;;;;8.20;6.60;;;;;;;20.26;100.00;99675.48;179996;1265;58352;-60
2023/06/30 04:32:09;;;;;;;11.70;7.60;;;;;;;20.38;100.00;99677.77;179954;1264;44951;-60
2023/06/30 04:36:11;;;;;;;15.10;8.30;;;;;;;20.51;100.00;99669.08;179819;1265;43580;-59
2023/06/30 04:40:13;;;;;;;14.40;7.40;;;;;;;20.61;100.00;99665.29;179913;1265;85727;-91
2023/06/30 04:44:16;;;;;;;15.30;8.60;;;;;;;20.69;100.00;99664.80;179147;1267;45965;-90
2023/06/30 04:48:18;;;;;;;9.40;7.40;;;;;;;20.78;100.00;99660.23;178950;1265;58143;-88
2023/06/30 04:52:21;;;;;;;9.20;7.00;;;;;;;20.82;100.00;99668.72;178928;1263;45182;-91
2023/06/30 04:56:23;;;;;;;11.30;6.70;;;;;;;20.75;100.00;99663.84;178353;1265;46190;-87
2023/06/30 05:00:26;;;;;;;8.10;7.20;;;;;;;20.75;100.00;99660.48;178844;1263;45873;-87
2023/06/30 05:04:28;;;;;;;9.60;7.40;;;;;;;20.78;100.00;99661.48;178813;1266;46026;-91
2023/06/30 05:08:30;;;;;;;11.80;6.80;;;;;;;20.87;100.00;99657.42;179129;1265;58815;-88
2023/06/30 05:12:32;;;;;;;11.80;6.70;;;;;;;20.98;100.00;99660.33;179009;1268;44347;-90
2023/06/30 05:16:34;;;;;;;10.00;7.10;;;;;;;21.04;100.00;99664.52;179152;1264;46038;-90
2023/06/30 05:20:39;;;;;;;13.90;8.60;;;;;;;21.12;100.00;99659.46;178808;1264;46349;-90
2023/06/30 05:24:41;;;;;;;7.50;6.70;;;;;;;21.19;100.00;99654.70;178431;1270;44356;-89
2023/06/30 05:28:43;;;;;;;23.20;6.90;;;;;;;21.30;100.00;99650.31;178607;1264;58319;-89
2023/06/30 05:33:01;;;;;;;14.70;8.50;;;;;;;21.51;100.00;99650.55;178896;1265;44779;-90
2023/06/30 05:37:03;;;;;;;9.00;7.00;;;;;;;21.76;100.00;99649.19;178794;1264;44884;-89
2023/06/30 05:41:09;;;;;;;10.30;7.00;;;;;;;22.01;100.00;99650.55;179198;1264;46036;-90
2023/06/30 05:45:12;;;;;;;8.70;7.20;;;;;;;22.23;100.00;99648.93;178848;1262;46037;-90
2023/06/30 05:49:16;;;;;;;9.10;6.20;;;;;;;22.46;100.00;99649.11;178817;1264;60844;-89
2023/06/30 05:53:27;;;;;;;7.20;5.60;;;;;;;22.66;99.31;99653.27;178692;1265;45956;-91
2023/06/30 05:57:31;;;;;;;10.00;5.50;;;;;;;22.89;97.34;99656.44;179352;1264;45034;-91
2023/06/30 06:01:40;;;;;;;10.40;6.30;;;;;;;23.09;93.96;99655.96;178899;1264;46101;-90
2023/06/30 06:05:54;;;;;;;10.60;4.70;;;;;;;23.26;90.76;99656.61;178981;1264;44685;-88
2023/06/30 06:10:11;;;;;;;11.50;8.90;;;;;;;23.38;90.46;99655.06;179469;1264;58165;-86
2023/06/30 06:14:15;;;;;;;12.10;8.00;;;;;;;23.40;87.75;99655.35;177782;1264;45985;-85
2023/06/30 06:18:17;;;;;;;10.40;5.80;;;;;;;23.41;91.09;99655.79;177839;1264;44695;-85
2023/06/30 06:22:20;;;;;;;6.30;5.60;;;;;;;23.44;92.16;99653.12;177677;1264;46145;-85
2023/06/30 06:26:23;;;;;;;5.30;3.30;;;;;;;23.58;92.23;99645.80;177645;1264;46054;-85
2023/06/30 06:30:26;;;;;;;7.50;4.30;;;;;;;23.60;89.53;99645.59;178019;1264;58237;-86
2023/06/30 06:34:28;;;;;;;3.70;3.40;;;;;;;23.72;91.58;99642.71;178123;1264;46101;-86
2023/06/30 06:38:31;;;;;;;10.90;4.00;;;;;;;23.66;90.88;99643.00;177537;1264;46001;-86
2023/06/30 06:42:33;;;;;;;6.10;4.20;;;;;;;23.71;88.48;99646.33;178297;1264;46144;-87
2023/06/30 06:46:35;;;;;;;5.30;4.70;;;;;;;23.79;89.10;99648.23;177503;1264;46166;-86
2023/06/30 06:50:38;;;;;;;4.60;3.40;;;;;;;23.81;89.43;99651.88;178205;1264;58498;-86
2023/06/30 06:54:40;;;;;;;6.50;4.30;;;;;;;23.67;89.91;99651.27;177874;1264;46340;-86
2023/06/30 06:58:43;;;;;;;5.70;3.80;;;;;;;23.74;89.94;99647.33;177761;1264;46116;-86
2023/06/30 07:02:45;;;;;;;4.90;3.70;;;;;;;23.88;89.50;99646.30;177997;1264;46160;-85
2023/06/30 07:06:48;;;;;;;7.40;3.50;;;;;;;23.99;90.01;99650.68;177958;1264;46116;-85
2023/06/30 07:10:51;;;;;;;4.80;3.40;;;;;;;24.08;89.91;99642.76;178658;1264;58230;-85
2023/06/30 07:14:54;;;;;;;4.50;3.60;;;;;;;24.10;89.15;99642.32;179148;1264;46116;-86
2023/06/30 07:18:56;;;;;;;8.40;4.00;;;;;;;24.15;91.37;99638.40;179893;1263;45993;-86
2023/06/30 07:22:59;;;;;;;10.90;3.90;;;;;;;24.29;91.16;99634.30;179087;1264;45804;-86
2023/06/30 07:27:01;;;;;;;5.40;3.00;;;;;;;24.44;89.31;99632.45;179443;1263;44652;-86
2023/06/30 07:31:03;;;;;;;5.20;3.90;;;;;;;24.63;88.79;99628.29;179342;1262;59356;-88
2023/06/30 07:35:05;;;;;;;5.60;3.60;;;;;;;24.71;87.46;99620.84;179500;1264;44682;-87
2023/06/30 07:39:07;;;;;;;6.30;3.50;;;;;;;24.88;86.85;99625.04;179051;1264;45905;-88
2023/06/30 07:43:09;;;;;;;6.70;4.50;;;;;;;25.02;85.31;99626.17;178831;1263;45948;-90
2023/06/30 07:47:11;;;;;;;25.70;6.00;;;;;;;25.14;85.36;99625.07;178888;1263;45946;-87
2023/06/30 07:51:13;;;;;;;6.20;4.20;;;;;;;25.19;85.74;99625.30;178874;1264;59301;-89
2023/06/30 07:55:16;;;;;;;8.90;3.90;;;;;;;25.25;86.43;99620.45;178379;1264;45992;-89
2023/06/30 07:59:19;;;;;;;4.00;3.30;;;;;;;25.29;85.45;99618.64;178582;1264;44280;-89
2023/06/30 08:03:21;;;;;;;5.10;3.40;;;;;;;25.24;86.04;99622.73;178613;1263;45924;-88
2023/06/30 08:07:23;;;;;;;7.90;3.00;;;;;;;25.25;85.12;99616.61;179287;1264;45865;-91
2023/06/30 08:11:45;;;;;;;5.20;3.20;;;;;;;25.32;84.37;99612.81;178863;1263;58173;-90
2023/06/30 08:15:48;;;;;;;8.80;4.10;;;;;;;25.34;83.67;99613.79;180108;1262;43897;-86
2023/06/30 08:19:51;;;;;;;5.00;3.80;;;;;;;25.24;84.13;99611.64;178708;1264;44855;-85
2023/06/30 08:23:54;;;;;;;14.50;5.00;;;;;;;25.21;83.76;99621.36;178342;1267;45930;-85
2023/06/30 08:27:56;;;;;;;10.90;5.00;;;;;;;25.19;84.68;99632.55;178494;1263;46021;-84
2023/06/30 08:31:59;;;;;;;5.70;3.40;;;;;;;25.00;83.36;99630.42;178157;1263;59417;-84
2023/06/30 08:36:01;;;;;;;7.50;4.00;;;;;;;24.72;83.96;99634.29;177785;1264;46151;-84
2023/06/30 08:40:05;;;;;;;5.10;3.30;;;;;;;24.53;86.22;99639.46;177879;1264;45914;-84
2023/06/30 08:44:09;;;;;;;7.50;4.20;;;;;;;24.40;86.65;99632.42;178598;1263;45760;-85
2023/06/30 08:48:19;;;;;;;6.10;4.30;;;;;;;24.37;87.19;99635.20;179117;1264;45073;-85
2023/06/30 08:53:07;;;;;;;7.80;4.50;;;;;;;24.35;86.92;99628.30;178947;1263;58626;-85
2023/06/30 08:57:26;;;;;;;5.70;4.20;;;;;;;24.35;87.71;99627.84;178445;1269;44006;-87
2023/06/30 09:01:30;;;;;;;5.50;3.80;;;;;;;24.41;89.69;99628.20;178326;1270;46149;-85
2023/06/30 09:05:36;;;;;;;7.30;3.10;;;;;;;24.52;91.54;99630.26;178317;1270;45984;-85
2023/06/30 09:09:44;;;;;;;4.20;3.10;;;;;;;24.67;90.83;99624.08;177614;1270;46063;-85
2023/06/30 09:13:47;;;;;;;4.70;3.50;;;;;;;24.81;92.87;99619.98;177587;1270;59571;-84
2023/06/30 09:17:50;;;;;;;10.70;3.90;;;;;;;24.88;91.16;99619.17;177573;1268;46104;-85
2023/06/30 09:21:58;;;;;;;4.70;3.90;;;;;;;25.01;91.53;99617.50;179500;1264;44184;-85
2023/06/30 09:26:00;;;;;;;3.90;2.80;;;;;;;25.19;87.22;99621.64;178335;1267;46151;-87
2023/06/30 09:30:04;;;;;;;5.30;3.00;;;;;;;25.40;85.98;99619.20;178642;1264;44667;-88
2023/06/30 09:34:12;;;;;;;4.30;2.90;;;;;;;25.63;84.24;99618.71;178175;1265;58024;-88
2023/06/30 09:38:16;;;;;;;5.50;3.40;;;;;;;25.73;82.60;99614.52;178160;1264;44918;-86
2023/06/30 09:42:21;;;;;;;7.60;4.50;;;;;;;25.78;84.70;99610.82;178741;1265;46007;-88
2023/06/30 09:46:23;;;;;;;6.70;3.00;;;;;;;25.89;82.07;99613.42;178705;1266;45812;-89
2023/06/30 09:50:27;;;;;;;7.20;3.40;;;;;;;25.81;81.53;99617.58;178423;1265;45453;-89
2023/06/30 09:54:33;;;;;;;20.20;8.50;;;;;;;25.79;82.38;99615.86;178798;1265;60148;-88
2023/06/30 09:58:47;;;;;;;7.90;3.20;;;;;;;25.75;79.28;99615.45;178794;1265;46120;-88
2023/06/30 10:03:02;;;;;;;7.80;4.50;;;;;;;25.68;81.69;99615.31;178544;1269;46090;-89
2023/06/30 10:07:09;;;;;;;8.30;4.30;;;;;;;25.75;81.76;99607.77;178725;1265;46052;-87
2023/06/30 10:11:19;;;;;;;7.90;3.30;;;;;;;25.88;82.72;99606.20;179068;1265;46055;-86
2023/06/30 10:15:40;;;;;;;8.10;4.10;;;;;;;26.00;82.40;99607.46;179075;1267;60682;-87
2023/06/30 10:19:44;;;;;;;5.50;3.60;;;;;;;26.17;79.28;99605.33;179216;1265;45954;-88
2023/06/30 10:23:49;;;;;;;10.10;4.00;;;;;;;26.29;79.70;99605.86;179033;1267;46567;-85
2023/06/30 10:27:52;;;;;;;6.20;3.20;;;;;;;26.34;79.35;99608.40;178754;1267;46154;-85
2023/06/30 10:31:55;;;;;;;4.90;2.90;;;;;;;26.38;79.55;99601.16;178640;1265;46179;-85
2023/06/30 10:36:00;;;;;;;8.00;3.20;;;;;;;26.49;79.80;99603.79;178381;1267;58578;-86
2023/06/30 10:40:29;;;;;;;3.50;2.60;;;;;;;26.63;79.07;99602.31;178027;1270;46020;-85
2023/06/30 10:44:43;;;;;;;3.40;3.10;;;;;;;26.63;79.43;99600.23;178337;1266;45988;-85
2023/06/30 10:48:46;;;;;;;3.80;2.80;;;;;;;26.68;76.73;99598.89;178089;1267;46013;-86
2023/06/30 10:52:54;;;;;;;4.90;3.20;;;;;;;26.73;75.13;99598.57;179202;1267;46055;-86
2023/06/30 10:57:14;;;;;;;4.10;3.00;;;;;;;26.72;76.73;99597.16;179094;1266;60012;-85
2023/06/30 11:01:18;;;;;;;3.40;2.40;;;;;;;26.71;76.13;99598.88;178452;1268;46075;-86
2023/06/30 11:05:23;;;;;;;7.60;2.80;;;;;;;26.71;75.16;99600.30;178389;1266;45256;-86
2023/06/30 11:09:26;;;;;;;;;;;;;;;26.75;74.77;99599.65;178353;1267;45421;-85
2023/06/30 11:13:43;;;;;;;5.40;2.60;;;;;;;26.75;74.55;99604.18;178658;1267;45981;-86
2023/06/30 11:17:52;;;;;;;3.10;2.70;;;;;;;26.69;74.25;99602.06;178494;1267;61488;-85
2023/06/30 11:22:23;;;;;;;5.00;2.70;;;;;;;26.57;77.75;99605.00;179092;1267;43698;-86
2023/06/30 11:26:26;;;;;;;20.80;4.70;;;;;;;26.57;78.02;99606.86;179638;1261;44634;-85
2023/06/30 11:30:33;;;;;;;4.10;2.80;;;;;;;26.54;76.39;99602.94;179811;1264;45911;-85
2023/06/30 11:34:37;;;;;;;9.20;4.60;;;;;;;26.56;76.08;99601.81;179280;1267;46041;-87
2023/06/30 11:38:49;;;;;;;11.60;4.20;;;;;;;26.54;81.08;99600.36;179426;1263;58479;-89
2023/06/30 11:42:54;;;;;;;6.00;5.50;;;;;;;26.43;80.58;99605.33;179585;1266;46099;-88
2023/06/30 11:46:58;;;;;;;4.10;3.40;;;;;;;26.24;78.72;99602.70;179748;1263;45571;-89
2023/06/30 11:51:01;;;;;;;11.40;4.10;;;;;;;26.02;77.97;99606.19;179464;1265;44411;-89
2023/06/30 11:55:08;;;;;;;8.40;3.90;;;;;;;25.77;76.81;99605.13;179721;1265;45979;-86
2023/06/30 11:59:10;;;;;;;15.90;4.70;;;;;;;25.63;77.96;99601.16;179486;1268;59127;-89
2023/06/30 12:03:19;;;;;;;8.70;4.80;;;;;;;25.37;82.51;99600.04;179363;1266;46204;-88
2023/06/30 12:07:21;;;;;;;4.00;3.60;;;;;;;25.19;87.16;99597.80;179123;1264;45885;-87
2023/06/30 12:11:23;;;;;;;6.10;3.30;;;;;;;25.01;88.19;99599.15;179789;1267;46069;-90
2023/06/30 12:15:31;;;;;;;5.20;4.60;;;;;;;24.87;92.70;99599.62;179429;1264;45202;-86
2023/06/30 12:19:37;;;;;;;6.10;4.60;;;;;;;24.82;94.07;99595.16;179747;1264;61209;-90
2023/06/30 12:23:44;;;;;;;9.70;5.60;;;;;;;24.81;95.23;99592.27;179244;1264;309874;-90
2023/06/30 12:32:31;;;;;;;85.50;19.20;;;;;;;25.09;95.74;99593.02;178516;1264;45988;-86
2023/06/30 12:36:34;;;;;;;10.60;6.00;;;;;;;25.22;93.73;99593.19;178094;1265;46404;-85
2023/06/30 12:40:38;;;;;;;10.60;5.50;;;;;;;25.21;93.87;99592.90;178135;1265;58564;-84
2023/06/30 12:44:44;;;;;;;6.70;3.90;;;;;;;24.82;93.51;99598.08;177869;1265;46085;-84
2023/06/30 12:48:49;;;;;;;8.00;4.50;;;;;;;24.31;93.83;99592.04;178529;1265;44133;-85
2023/06/30 12:52:52;;;;;;;5.80;4.40;;;;;;;23.85;96.51;99590.12;178760;1265;46559;-85
2023/06/30 12:56:55;;;;;;;5.50;4.40;;;;;;;23.67;98.89;99575.92;178396;1265;46018;-86
2023/06/30 13:01:00;;;;;;;5.30;3.70;;;;;;;23.72;99.47;99570.45;177887;1265;58093;-85
2023/06/30 13:05:05;;;;;;;8.50;4.10;;;;;;;23.80;97.80;99566.41;177824;1265;46025;-86
2023/06/30 13:09:08;;;;;;;6.90;5.30;;;;;;;23.94;99.91;99559.20;178008;1268;46025;-85
2023/06/30 13:13:10;;;;;;;8.50;4.60;;;;;;;24.07;100.00;99548.21;177993;1265;45963;-85
2023/06/30 13:17:14;;;;;;;5.50;3.80;;;;;;;24.18;100.00;99548.40;178135;1265;46072;-85
2023/06/30 13:21:17;;;;;;;5.80;2.90;;;;;;;24.33;98.66;99544.18;178405;1265;61114;-85
2023/06/30 13:25:20;;;;;;;5.90;3.60;;;;;;;24.35;95.76;99545.05;178125;1270;45977;-85
2023/06/30 13:29:23;;;;;;;4.50;3.40;;;;;;;24.32;96.85;99541.95;178491;1269;45160;-85
2023/06/30 13:33:25;;;;;;;3.60;3.10;;;;;;;24.33;98.84;99539.09;178861;1261;45844;-85
2023/06/30 13:37:28;;;;;;;4.70;3.30;;;;;;;24.34;100.00;99542.70;179272;1264;45140;-89
2023/06/30 13:41:31;;;;;;;5.20;3.40;;;;;;;24.41;100.00;99536.34;179577;1265;59239;-86
2023/06/30 13:45:33;;;;;;;5.70;4.40;;;;;;;24.49;100.00;99533.80;179999;1263;85299;-88
2023/06/30 13:49:36;;;;;;;12.40;4.00;;;;;;;24.58;99.86;99527.20;178977;1264;46048;-88
2023/06/30 13:53:39;;;;;;;4.00;3.60;;;;;;;24.64;98.85;99517.06;178605;1263;44718;-88
2023/06/30 13:57:44;;;;;;;6.10;3.00;;;;;;;24.71;97.60;99513.02;178402;1264;46043;-88
2023/06/30 14:01:47;;;;;;;4.90;3.70;;;;;;;24.76;99.39;99508.27;178287;1263;61788;-88
2023/06/30 14:05:51;;;;;;;4.90;3.30;;;;;;;24.75;99.48;99506.98;178230;1263;44554;-88
2023/06/30 14:09:58;;;;;;;5.80;2.50;;;;;;;24.78;95.31;99500.33;178419;1263;46078;-87
2023/06/30 14:14:03;;;;;;;5.10;3.80;;;;;;;24.82;92.78;99494.48;178201;1264;46100;-88
2023/06/30 14:18:09;;;;;;;3.40;2.40;;;;;;;24.90;87.82;99493.27;178352;1264;44209;-88
2023/06/30 14:22:12;;;;;;;4.30;2.70;;;;;;;24.90;89.73;99492.35;177928;1266;59684;-88
2023/06/30 14:26:14;;;;;;;4.30;3.60;;;;;;;24.89;89.09;99491.80;177752;1267;45979;-87
2023/06/30 14:30:28;;;;;;;4.20;2.90;;;;;;;24.96;89.53;99487.85;177920;1264;46122;-89
2023/06/30 14:34:31;;;;;;;6.20;3.40;;;;;;;25.01;91.04;99488.17;178307;1263;46100;-89
2023/06/30 14:38:47;;;;;;;5.40;2.30;;;;;;;25.08;89.04;99490.36;178822;1267;46004;-90
2023/06/30 14:42:53;;;;;;;5.80;3.50;;;;;;;25.14;86.26;99496.75;178009;1264;59111;-88
2023/06/30 14:46:58;;;;;;;3.40;2.00;;;;;;;25.23;83.05;99488.59;178980;1261;44702;-91
2023/06/30 14:51:04;;;;;;;3.10;2.80;;;;;;;25.29;80.03;99483.10;178779;1263;44622;-88
2023/06/30 14:55:06;;;;;;;3.50;3.00;;;;;;;25.35;83.84;99483.64;178832;1264;44050;-86
2023/06/30 14:59:08;;;;;;;4.40;3.30;;;;;;;25.31;85.35;99486.28;177554;1262;46000;-88
2023/06/30 15:03:10;;;;;;;3.70;2.70;;;;;;;25.29;86.53;99483.05;177667;1264;58377;-87
2023/06/30 15:07:13;;;;;;;5.90;3.20;;;;;;;25.24;83.27;99485.58;177714;1263;45975;-88
2023/06/30 15:11:15;;;;;;;3.20;2.90;;;;;;;25.20;83.41;99490.99;178135;1263;46035;-89
2023/06/30 15:15:17;;;;;;;5.50;2.70;;;;;;;25.07;84.08;99497.88;178857;1263;44073;-87
2023/06/30 15:19:19;;;;;;;5.30;3.30;;;;;;;24.89;83.78;99502.23;177709;1264;46033;-85
2023/06/30 15:23:21;;;;;;;2.90;2.30;;;;;;;24.85;87.86;99509.10;178130;1262;59572;-88
2023/06/30 15:27:24;;;;;;;5.30;2.90;;;;;;;24.78;89.19;99505.85;177576;1264;45992;-87
2023/06/30 15:31:26;;;;;;;3.60;3.30;;;;;;;24.69;93.05;99508.64;178386;1263;45576;-86
2023/06/30 15:35:28;;;;;;;5.80;3.30;;;;;;;24.57;95.83;99504.13;179945;1264;46691;-88
2023/06/30 15:39:30;;;;;;;5.10;3.70;;;;;;;24.39;97.39;99504.45;178376;1262;44248;-88
2023/06/30 15:43:32;;;;;;;6.80;3.40;;;;;;;24.30;99.77;99504.66;178620;1262;58387;-88
2023/06/30 15:47:34;;;;;;;4.70;3.80;;;;;;;24.19;99.06;99510.11;178084;1263;45933;-88
2023/06/30 15:51:43;;;;;;;4.70;3.40;;;;;;;24.06;98.83;99513.23;178404;1266;46026;-88
2023/06/30 15:55:46;;;;;;;5.60;4.70;;;;;;;24.00;97.57;99516.30;179182;1264;44697;-87
2023/06/30 15:59:52;;;;;;;3.80;2.50;;;;;;;23.89;98.41;99512.73;179410;1268;45991;-86
2023/06/30 16:03:54;;;;;;;4.00;3.30;;;;;;;23.79;99.59;99508.67;178595;1263;59421;-87
2023/06/30 16:07:58;;;;;;;5.00;3.40;;;;;;;23.69;99.42;99504.30;180658;1263;43943;-88
2023/06/30 16:12:00;;;;;;;4.10;3.50;;;;;;;23.54;99.93;99501.73;178192;1263;46009;-87
2023/06/30 16:16:03;;;;;;;4.60;4.00;;;;;;;23.35;100.00;99498.77;178787;1262;46202;-86
2023/06/30 16:20:07;;;;;;;13.30;10.20;;;;;;;23.24;100.00;99496.73;178950;1265;44148;-87
2023/06/30 16:24:10;;;;;;;8.40;7.60;;;;;;;23.12;100.00;99483.55;178786;1264;59338;-87
2023/06/30 16:28:13;;;;;;;10.70;6.20;;;;;;;23.07;100.00;99488.01;178135;1265;46024;-87
2023/06/30 16:32:15;;;;;;;9.40;4.60;;;;;;;23.09;100.00;99486.05;178125;1263;46700;-86
2023/06/30 16:36:17;;;;;;;7.30;4.00;;;;;;;23.14;100.00;99473.67;178395;1265;46000;-87
2023/06/30 16:40:21;;;;;;;6.10;4.10;;;;;;;23.18;100.00;99473.51;178785;1265;46041;-87
2023/06/30 16:44:29;;;;;;;59.10;51.60;;;;;;;23.21;100.00;99472.30;179196;1265;57992;-87
2023/06/30 16:48:34;;;;;;;31.00;21.90;;;;;;;23.20;100.00;99469.27;179242;1266;45179;-88
2023/06/30 16:52:38;;;;;;;5.60;4.70;;;;;;;23.21;100.00;99472.52;178396;1264;46049;-87
2023/06/30 16:56:41;;;;;;;8.20;7.50;;;;;;;23.25;100.00;99470.84;178180;1264;46059;-88
2023/06/30 17:00:42;;;;;;;5.90;5.30;;;;;;;23.16;100.00;99467.98;177339;1267;46068;-87
2023/06/30 17:04:45;;;;;;;7.50;4.50;;;;;;;22.89;100.00;99466.14;178619;1265;59214;-87
2023/06/30 17:08:47;;;;;;;20.00;5.40;;;;;;;22.81;100.00;99470.42;178438;1264;46040;-86
2023/06/30 17:12:50;;;;;;;6.90;5.30;;;;;;;22.77;100.00;99470.91;179743;1266;44627;-87
2023/06/30 17:16:52;;;;;;;4.90;4.00;;;;;;;22.76;100.00;99475.34;179323;1265;46159;-88
2023/06/30 17:20:54;;;;;;;8.60;5.50;;;;;;;22.73;100.00;99480.27;178159;1264;46081;-88
2023/06/30 17:24:58;;;;;;;7.90;6.10;;;;;;;22.72;100.00;99481.16;177189;1264;59609;-87
2023/06/30 17:29:07;;;;;;;8.30;5.70;;;;;;;22.61;100.00;99485.25;177343;1264;46114;-88
2023/06/30 17:33:09;;;;;;;7.50;6.10;;;;;;;22.61;100.00;99487.61;178189;1265;46010;-86
2023/06/30 17:37:11;;;;;;;17.20;6.20;;;;;;;22.62;100.00;99483.86;178373;1267;46081;-89
2023/06/30 17:41:13;;;;;;;6.50;4.00;;;;;;;22.59;100.00;99483.00;178850;1265;45322;-90
2023/06/30 17:45:19;;;;;;;36.60;6.50;;;;;;;22.54;100.00;99481.59;179290;1265;59359;-89
2023/06/30 17:49:27;;;;;;;5.20;4.80;;;;;;;22.48;100.00;99481.48;178992;1265;44735;-91
2023/06/30 17:53:30;;;;;;;7.10;5.10;;;;;;;22.49;100.00;99485.31;178575;1265;44922;-90
2023/06/30 17:57:50;;;;;;;6.60;6.00;;;;;;;22.53;100.00;99491.58;178536;1261;45973;-89
2023/06/30 18:01:53;;;;;;;8.40;5.70;;;;;;;22.49;100.00;99499.27;178773;1264;46242;-89
2023/06/30 18:05:55;;;;;;;8.00;5.90;;;;;;;22.38;100.00;99501.31;178893;1263;59411;-88
2023/06/30 18:09:58;;;;;;;8.90;7.50;;;;;;;22.33;100.00;99507.23;179038;1264;45737;-88
2023/06/30 18:14:01;;;;;;;8.30;6.20;;;;;;;22.32;100.00;99506.33;178962;1263;45981;-88
2023/06/30 18:18:04;;;;;;;9.80;5.30;;;;;;;22.33;100.00;99504.12;179105;1264;44073;-89
2023/06/30 18:22:07;;;;;;;8.00;5.80;;;;;;;22.33;100.00;99505.27;178011;1263;45987;-89
2023/06/30 18:26:10;;;;;;;20.20;10.10;;;;;;;22.33;100.00;99504.48;178635;1264;58139;-89
2023/06/30 18:30:16;;;;;;;10.70;7.20;;;;;;;22.30;100.00;99503.34;178409;1265;46003;-89
2023/06/30 18:34:20;;;;;;;11.30;8.30;;;;;;;22.35;100.00;99497.13;178384;1267;46027;-89
2023/06/30 18:38:23;;;;;;;12.30;9.10;;;;;;;22.39;100.00;99498.18;178733;1264;46070;-88
2023/06/30 18:42:25;;;;;;;8.70;7.90;;;;;;;22.40;100.00;99496.00;178730;1263;45045;-89
2023/06/30 18:46:28;;;;;;;7.60;6.90;;;;;;;22.34;100.00;99492.35;178433;1263;58263;-89
2023/06/30 18:50:31;;;;;;;9.20;6.30;;;;;;;22.23;100.00;99495.73;178337;1265;46141;-90
2023/06/30 18:54:34;;;;;;;7.80;5.90;;;;;;;22.10;100.00;99496.81;179039;1263;45172;-89
2023/06/30 18:58:36;;;;;;;8.40;6.10;;;;;;;22.01;100.00;99510.31;178936;1263;45950;-88